createdAt,value
2017-12-11T00:02:25.162Z,98959.84
2017-12-11T00:04:51.559Z,98966.08
2017-12-11T00:07:17.994Z,98959.36
2017-12-11T00:09:44.429Z,98963.98
2017-12-11T00:12:10.900Z,98972.97
2017-12-11T00:14:37.230Z,98977.13
2017-12-11T00:17:03.629Z,98971.44
2017-12-11T00:19:30.064Z,98978.95
2017-12-11T00:21:56.499Z,98982.36
2017-12-11T00:24:22.869Z,98981.27
2017-12-11T00:26:49.265Z,98990.69
2017-12-11T00:29:15.701Z,98991.48
2017-12-11T00:31:42.237Z,98980.89
2017-12-11T00:34:08.672Z,98993.03
2017-12-11T00:36:35.075Z,98995.14
2017-12-11T00:39:01.540Z,99001.21
2017-12-11T00:41:27.975Z,99003.04
2017-12-11T00:43:55.229Z,99010.23
2017-12-11T00:46:21.665Z,99007.20
2017-12-11T00:48:48.098Z,99004.84
2017-12-11T00:51:14.533Z,98997.89
2017-12-11T00:53:40.968Z,98989.98
2017-12-11T00:56:07.409Z,99003.46
2017-12-11T00:58:33.836Z,99013.58
2017-12-11T01:01:00.272Z,99014.61
2017-12-11T01:03:26.706Z,99000.22
2017-12-11T01:05:53.142Z,98997.89
2017-12-11T01:08:19.519Z,99004.40
2017-12-11T01:10:45.907Z,99002.67
2017-12-11T01:13:12.342Z,99009.98
2017-12-11T01:15:38.776Z,99011.88
2017-12-11T01:18:05.211Z,99018.86
2017-12-11T01:20:31.644Z,99014.08
2017-12-11T01:22:58.182Z,99020.55
2017-12-11T01:25:24.619Z,99030.97
2017-12-11T01:27:51.053Z,99031.78
2017-12-11T01:30:17.416Z,99037.65
2017-12-11T01:32:43.788Z,99032.69
2017-12-11T01:35:10.256Z,99035.84
2017-12-11T01:37:36.690Z,99039.83
2017-12-11T01:40:03.125Z,99034.66
2017-12-11T01:42:29.558Z,99042.78
2017-12-11T01:44:55.991Z,99040.95
2017-12-11T01:47:22.425Z,99047.41
2017-12-11T01:49:48.793Z,99036.98
2017-12-11T01:52:16.011Z,99033.06
2017-12-11T01:54:42.445Z,99036.72
2017-12-11T01:57:08.814Z,99036.61
2017-12-11T01:59:35.213Z,99041.89
2017-12-11T02:02:01.648Z,99056.09
2017-12-11T02:04:28.082Z,99058.50
2017-12-11T02:06:54.516Z,99054.75
2017-12-11T02:09:20.953Z,99054.66
2017-12-11T02:11:47.385Z,99065.19
2017-12-11T02:14:13.820Z,99058.93
2017-12-11T02:16:40.256Z,99043.02
2017-12-11T02:19:06.690Z,99061.63
2017-12-11T02:21:33.124Z,99051.61
2017-12-11T02:23:59.456Z,99041.49
2017-12-11T02:26:25.890Z,99040.17
2017-12-11T02:28:52.328Z,99049.69
2017-12-11T02:31:19.271Z,99034.20
2017-12-11T02:33:45.707Z,99048.57
2017-12-11T02:36:12.141Z,99052.93
2017-12-11T02:38:38.577Z,99055.97
2017-12-11T02:41:05.010Z,99057.80
2017-12-11T02:43:31.444Z,99058.53
2017-12-11T02:45:57.981Z,99062.35
2017-12-11T02:48:24.416Z,99071.08
2017-12-11T02:50:50.783Z,99071.69
2017-12-11T02:53:17.182Z,99072.30
2017-12-11T02:55:43.617Z,99061.56
2017-12-11T02:58:10.051Z,99059.62
2017-12-11T03:00:36.489Z,99059.02
2017-12-11T03:03:03.640Z,99059.70
2017-12-11T03:05:30.080Z,99060.54
2017-12-11T03:07:56.506Z,99068.63
2017-12-11T03:10:23.736Z,99079.25
2017-12-11T03:12:50.198Z,99060.64
2017-12-11T03:15:16.626Z,99060.22
2017-12-11T03:17:43.783Z,99066.21
2017-12-11T03:20:10.215Z,99064.07
2017-12-11T03:22:36.650Z,99069.76
2017-12-11T03:25:03.085Z,99079.16
2017-12-11T03:27:29.519Z,99073.61
2017-12-11T03:29:55.955Z,99069.75
2017-12-11T03:32:22.389Z,99072.59
2017-12-11T03:34:48.805Z,99071.09
2017-12-11T03:37:15.257Z,99072.41
2017-12-11T03:39:41.691Z,99065.49
2017-12-11T03:42:08.777Z,99068.35
2017-12-11T03:44:35.176Z,99079.69
2017-12-11T03:47:01.611Z,99080.19
2017-12-11T03:49:28.762Z,99073.59
2017-12-11T03:51:55.200Z,99077.56
2017-12-11T03:54:21.630Z,99066.52
2017-12-11T03:56:48.066Z,99063.68
2017-12-11T03:59:14.503Z,99055.56
2017-12-11T04:01:40.934Z,99061.45
2017-12-11T04:04:07.356Z,99050.60
2017-12-11T04:06:33.772Z,99047.98
2017-12-11T04:09:00.215Z,99047.38
2017-12-11T04:11:26.672Z,99030.94
2017-12-11T04:13:53.107Z,99041.17
2017-12-11T04:16:19.438Z,99040.78
2017-12-11T04:18:45.873Z,99032.84
2017-12-11T04:21:12.308Z,99049.16
2017-12-11T04:23:38.750Z,99042.25
2017-12-11T04:26:05.176Z,99035.23
2017-12-11T04:28:31.612Z,99043.23
2017-12-11T04:30:58.046Z,99033.18
2017-12-11T04:33:24.480Z,99025.98
2017-12-11T04:35:50.915Z,99031.75
2017-12-11T04:38:17.350Z,99014.89
2017-12-11T04:40:43.784Z,99008.09
2017-12-11T04:43:10.219Z,99021.49
2017-12-11T04:45:36.654Z,99009.92
2017-12-11T04:48:03.088Z,99009.83
2017-12-11T04:50:29.420Z,99007.50
2017-12-11T04:52:55.854Z,99015.25
2017-12-11T04:55:22.288Z,99014.66
2017-12-11T04:57:48.725Z,99013.75
2017-12-11T05:00:15.158Z,99011.81
2017-12-11T05:02:41.592Z,99007.25
2017-12-11T05:05:08.027Z,99005.02
2017-12-11T05:07:34.462Z,99021.12
2017-12-11T05:10:00.896Z,99015.59
2017-12-11T05:12:27.264Z,99003.77
2017-12-11T05:14:53.644Z,99006.58
2017-12-11T05:17:20.087Z,98995.80
2017-12-11T05:19:46.534Z,98990.62
2017-12-11T05:22:12.967Z,98996.70
2017-12-11T05:24:39.401Z,98997.99
2017-12-11T05:27:05.938Z,98994.54
2017-12-11T05:29:32.378Z,98982.62
2017-12-11T05:31:58.742Z,98990.98
2017-12-11T05:34:25.103Z,98990.05
2017-12-11T05:36:51.473Z,99004.81
2017-12-11T05:39:18.726Z,98995.44
2017-12-11T05:41:45.159Z,98993.09
2017-12-11T05:44:11.701Z,99004.12
2017-12-11T05:46:38.739Z,99003.88
2017-12-11T05:49:05.181Z,98997.25
2017-12-11T05:51:31.617Z,98992.88
2017-12-11T05:53:58.051Z,98999.48
2017-12-11T05:56:24.484Z,98999.21
2017-12-11T05:58:50.919Z,98997.12
2017-12-11T06:01:17.354Z,98997.09
2017-12-11T06:03:43.856Z,99002.02
2017-12-11T06:06:10.299Z,98997.13
2017-12-11T06:08:36.762Z,98996.25
2017-12-11T06:11:03.195Z,98993.65
2017-12-11T06:13:29.629Z,98991.23
2017-12-11T06:15:56.064Z,98989.23
2017-12-11T06:18:22.496Z,98997.25
2017-12-11T06:20:48.932Z,98998.94
2017-12-11T06:23:15.366Z,98998.61
2017-12-11T06:25:41.903Z,98991.77
2017-12-11T06:28:08.338Z,98990.17
2017-12-11T06:30:34.773Z,99003.84
2017-12-11T06:33:01.413Z,99005.25
2017-12-11T06:35:27.848Z,99009.27
2017-12-11T06:37:54.280Z,99014.58
2017-12-11T06:40:20.716Z,99023.02
2017-12-11T06:42:47.152Z,99014.69
2017-12-11T06:45:13.584Z,99020.50
2017-12-11T06:47:40.021Z,99016.58
2017-12-11T06:50:06.453Z,99015.88
2017-12-11T06:52:32.889Z,99023.44
2017-12-11T06:54:59.425Z,99027.74
2017-12-11T06:57:25.962Z,99030.05
2017-12-11T06:59:52.334Z,99030.81
2017-12-11T07:02:18.913Z,99019.05
2017-12-11T07:04:45.368Z,99017.98
2017-12-11T07:07:12.519Z,99020.03
2017-12-11T07:09:38.954Z,99033.37
2017-12-11T07:12:05.480Z,99036.92
2017-12-11T07:14:32.781Z,99036.72
2017-12-11T07:16:59.179Z,99039.56
2017-12-11T07:19:25.616Z,99032.89
2017-12-11T07:21:52.559Z,99042.74
2017-12-11T07:24:19.066Z,99043.30
2017-12-11T07:26:45.429Z,99043.17
2017-12-11T07:29:12.349Z,99042.95
2017-12-11T07:31:38.752Z,99050.34
2017-12-11T07:34:05.961Z,99055.97
2017-12-11T07:36:32.908Z,99051.97
2017-12-11T07:38:59.754Z,99052.67
2017-12-11T07:41:26.189Z,99054.25
2017-12-11T07:43:53.032Z,99049.27
2017-12-11T07:46:19.466Z,99067.03
2017-12-11T07:48:45.900Z,99051.65
2017-12-11T07:51:12.642Z,99053.64
2017-12-11T07:53:39.178Z,99056.20
2017-12-11T07:56:05.614Z,99070.09
2017-12-11T07:58:32.355Z,99058.88
2017-12-11T08:00:58.726Z,99056.56
2017-12-11T08:03:25.224Z,99056.77
2017-12-11T08:05:51.953Z,99058.33
2017-12-11T08:08:18.401Z,99053.19
2017-12-11T08:10:45.141Z,99063.66
2017-12-11T08:13:11.782Z,99057.23
2017-12-11T08:15:38.216Z,99060.02
2017-12-11T08:18:04.651Z,99062.52
2017-12-11T08:20:31.395Z,99082.52
2017-12-11T08:22:57.930Z,99078.51
2017-12-11T08:25:24.365Z,99085.26
2017-12-11T08:27:50.729Z,99085.30
2017-12-11T08:30:17.438Z,99079.05
2017-12-11T08:32:43.965Z,99080.41
2017-12-11T08:35:10.410Z,99073.45
2017-12-11T08:37:37.150Z,99076.55
2017-12-11T08:40:03.486Z,99078.44
2017-12-11T08:42:30.020Z,99079.53
2017-12-11T08:44:56.427Z,99072.59
2017-12-11T08:47:22.869Z,99074.86
2017-12-11T08:49:49.427Z,99073.98
2017-12-11T08:52:15.963Z,99062.30
2017-12-11T08:54:42.471Z,99050.78
2017-12-11T08:57:09.140Z,99043.77
2017-12-11T08:59:36.187Z,99040.91
2017-12-11T09:02:02.726Z,99039.06
2017-12-11T09:04:29.569Z,99042.44
2017-12-11T09:06:56.003Z,99048.16
2017-12-11T09:09:22.438Z,99042.80
2017-12-11T09:11:49.180Z,99044.59
2017-12-11T09:14:15.615Z,99049.16
2017-12-11T09:16:42.152Z,99037.00
2017-12-11T09:19:08.517Z,99029.80
2017-12-11T09:21:34.912Z,99020.94
2017-12-11T09:24:01.353Z,99023.15
2017-12-11T09:26:27.889Z,99019.98
2017-12-11T09:28:54.324Z,99016.56
2017-12-11T09:31:21.153Z,99017.64
2017-12-11T09:33:47.604Z,99010.63
2017-12-11T09:36:14.038Z,99012.72
2017-12-11T09:38:40.472Z,99006.67
2017-12-11T09:41:06.843Z,98996.67
2017-12-11T09:43:33.313Z,98999.45
2017-12-11T09:45:59.756Z,98979.03
2017-12-11T09:48:26.108Z,98976.91
2017-12-11T09:50:52.561Z,98975.42
2017-12-11T09:53:19.079Z,98981.23
2017-12-11T09:55:45.721Z,98980.77
2017-12-11T09:58:12.051Z,98979.76
2017-12-11T10:00:38.485Z,98980.49
2017-12-11T10:03:05.022Z,98987.91
2017-12-11T10:05:31.643Z,98989.96
2017-12-11T10:07:58.029Z,98989.92
2017-12-11T10:10:24.505Z,98988.14
2017-12-11T10:12:51.375Z,98980.69
2017-12-11T10:15:17.809Z,98983.61
2017-12-11T10:17:44.249Z,98988.14
2017-12-11T10:20:10.682Z,98991.98
2017-12-11T10:22:37.219Z,98986.13
2017-12-11T10:25:03.652Z,98977.63
2017-12-11T10:27:30.086Z,98971.46
2017-12-11T10:29:56.519Z,98966.25
2017-12-11T10:32:23.056Z,98965.88
2017-12-11T10:34:49.388Z,98966.95
2017-12-11T10:37:16.130Z,98963.09
2017-12-11T10:39:42.567Z,98973.06
2017-12-11T10:42:09.103Z,98967.48
2017-12-11T10:44:35.434Z,98970.02
2017-12-11T10:47:01.872Z,98966.50
2017-12-11T10:49:28.309Z,98968.73
2017-12-11T10:51:54.773Z,98961.05
2017-12-11T10:54:21.172Z,98968.66
2017-12-11T10:56:48.569Z,98969.64
2017-12-11T10:59:14.925Z,98962.81
2017-12-11T11:01:41.388Z,98958.12
2017-12-11T11:04:07.832Z,98954.48
2017-12-11T11:06:34.477Z,98957.27
2017-12-11T11:09:00.905Z,98955.19
2017-12-11T11:11:27.339Z,98960.06
2017-12-11T11:13:53.777Z,98950.66
2017-12-11T11:16:20.210Z,98953.73
2017-12-11T11:18:46.649Z,98957.77
2017-12-11T11:21:13.285Z,98966.23
2017-12-11T11:23:39.820Z,98964.91
2017-12-11T11:26:06.254Z,98965.58
2017-12-11T11:28:32.690Z,98951.81
2017-12-11T11:30:59.431Z,98951.81
2017-12-11T11:33:25.968Z,98951.03
2017-12-11T11:35:52.403Z,98948.20
2017-12-11T11:38:18.837Z,98941.10
2017-12-11T11:40:45.272Z,98956.49
2017-12-11T11:43:11.760Z,98950.31
2017-12-11T11:45:38.654Z,98948.15
2017-12-11T11:48:05.089Z,98953.75
2017-12-11T11:50:31.522Z,98952.70
2017-12-11T11:52:57.960Z,98957.39
2017-12-11T11:55:24.390Z,98961.43
2017-12-11T11:57:50.772Z,98961.59
2017-12-11T12:00:17.157Z,98948.87
2017-12-11T12:02:43.694Z,98951.96
2017-12-11T12:05:10.129Z,98940.31
2017-12-11T12:07:36.668Z,98946.08
2017-12-11T12:10:03.100Z,98928.53
2017-12-11T12:12:29.844Z,98921.02
2017-12-11T12:14:56.653Z,98922.87
2017-12-11T12:17:23.058Z,98932.73
2017-12-11T12:19:49.460Z,98925.06
2017-12-11T12:22:16.298Z,98932.48
2017-12-11T12:24:42.665Z,98925.59
2017-12-11T12:27:09.017Z,98918.41
2017-12-11T12:29:35.397Z,98914.28
2017-12-11T12:32:02.138Z,98918.69
2017-12-11T12:34:28.576Z,98914.84
2017-12-11T12:36:55.416Z,98919.37
2017-12-11T12:39:21.851Z,98926.17
2017-12-11T12:41:48.370Z,98929.45
2017-12-11T12:44:15.028Z,98913.28
2017-12-11T12:46:41.362Z,98908.43
2017-12-11T12:49:07.794Z,98903.08
2017-12-11T12:51:34.229Z,98910.06
2017-12-11T12:54:00.906Z,98907.13
2017-12-11T12:56:27.302Z,98904.03
2017-12-11T12:58:54.249Z,98908.20
2017-12-11T13:01:21.305Z,98898.17
2017-12-11T13:03:47.877Z,98898.80
2017-12-11T13:06:14.373Z,98895.18
2017-12-11T13:08:40.912Z,98895.40
2017-12-11T13:11:07.318Z,98894.39
2017-12-11T13:13:33.880Z,98907.68
2017-12-11T13:16:00.513Z,98906.94
2017-12-11T13:18:26.935Z,98905.08
2017-12-11T13:20:53.394Z,98905.14
2017-12-11T13:23:20.130Z,98904.61
2017-12-11T13:25:46.705Z,98897.56
2017-12-11T13:28:13.171Z,98902.27
2017-12-11T13:30:40.048Z,98909.64
2017-12-11T13:33:06.586Z,98905.78
2017-12-11T13:35:33.021Z,98905.63
2017-12-11T13:37:59.341Z,98915.27
2017-12-11T13:40:26.196Z,98909.91
2017-12-11T13:42:52.665Z,98920.50
2017-12-11T13:45:19.168Z,98915.15
2017-12-11T13:47:45.806Z,98907.23
2017-12-11T13:50:12.241Z,98896.67
2017-12-11T13:52:38.715Z,98902.70
2017-12-11T13:55:05.111Z,98904.59
2017-12-11T13:57:31.547Z,98903.11
2017-12-11T13:59:58.287Z,98898.53
2017-12-11T14:02:24.828Z,98906.94
2017-12-11T14:04:51.363Z,98896.89
2017-12-11T14:07:18.308Z,98895.52
2017-12-11T14:09:44.677Z,98902.28
2017-12-11T14:12:11.995Z,98902.27
2017-12-11T14:14:38.431Z,98913.50
2017-12-11T14:17:05.380Z,98906.78
2017-12-11T14:19:31.814Z,98903.27
2017-12-11T14:21:58.350Z,98904.94
2017-12-11T14:24:25.296Z,98912.13
2017-12-11T14:26:51.731Z,98927.55
2017-12-11T14:29:18.164Z,98909.88
2017-12-11T14:31:45.008Z,98921.48
2017-12-11T14:34:11.382Z,98925.20
2017-12-11T14:36:37.991Z,98929.53
2017-12-11T14:39:05.001Z,98939.32
2017-12-11T14:41:31.538Z,98934.72
2017-12-11T14:43:58.105Z,98947.84
2017-12-11T14:46:25.563Z,98941.52
2017-12-11T14:48:52.049Z,98937.82
2017-12-11T14:51:18.706Z,98929.05
2017-12-11T14:53:45.253Z,98932.28
2017-12-11T14:56:12.026Z,98938.98
2017-12-11T14:58:38.657Z,98935.75
2017-12-11T15:01:05.475Z,98936.17
2017-12-11T15:03:32.037Z,98932.48
2017-12-11T15:05:58.574Z,98914.34
2017-12-11T15:08:25.008Z,98925.52
2017-12-11T15:10:51.545Z,98922.23
2017-12-11T15:13:17.982Z,98913.91
2017-12-11T15:15:44.415Z,98923.61
2017-12-11T15:18:10.849Z,98924.19
2017-12-11T15:20:37.283Z,98935.23
2017-12-11T15:23:03.820Z,98933.52
2017-12-11T15:25:30.246Z,98936.41
2017-12-11T15:27:56.626Z,98934.41
2017-12-11T15:30:23.028Z,98937.94
2017-12-11T15:32:49.456Z,98936.90
2017-12-11T15:35:15.895Z,98936.78
2017-12-11T15:37:42.325Z,98943.23
2017-12-11T15:40:08.759Z,98937.97
2017-12-11T15:42:35.194Z,98929.78
2017-12-11T15:45:01.628Z,98929.36
2017-12-11T15:47:28.475Z,98935.69
2017-12-11T15:49:54.907Z,98939.47
2017-12-11T15:52:21.340Z,98933.92
2017-12-11T15:54:47.777Z,98930.41
2017-12-11T15:57:14.827Z,98933.47
2017-12-11T15:59:41.260Z,98929.38
2017-12-11T16:02:07.694Z,98938.44
2017-12-11T16:04:34.128Z,98937.53
2017-12-11T16:07:00.564Z,98938.17
2017-12-11T16:09:27.000Z,98939.00
2017-12-11T16:11:53.722Z,98938.31
2017-12-11T16:14:20.174Z,98933.67
2017-12-11T16:16:46.545Z,98930.52
2017-12-11T16:19:12.941Z,98929.97
2017-12-11T16:21:39.664Z,98936.69
2017-12-11T16:24:06.120Z,98936.15
2017-12-11T16:26:32.552Z,98938.16
2017-12-11T16:28:58.965Z,98948.42
2017-12-11T16:31:25.318Z,98946.67
2017-12-11T16:33:51.753Z,98945.95
2017-12-11T16:36:18.187Z,98938.67
2017-12-11T16:38:44.622Z,98939.50
2017-12-11T16:41:11.162Z,98932.77
2017-12-11T16:43:37.491Z,98937.05
2017-12-11T16:46:03.958Z,98948.80
2017-12-11T16:48:30.366Z,98950.23
2017-12-11T16:50:56.794Z,98950.19
2017-12-11T16:53:23.229Z,98952.16
2017-12-11T16:55:49.664Z,98961.49
2017-12-11T16:58:16.098Z,98958.61
2017-12-11T17:00:42.532Z,98960.30
2017-12-11T17:03:09.684Z,98970.40
2017-12-11T17:05:36.118Z,98966.69
2017-12-11T17:08:02.554Z,98966.51
2017-12-11T17:10:28.988Z,98969.31
2017-12-11T17:12:55.421Z,98969.03
2017-12-11T17:15:21.856Z,98962.66
2017-12-11T17:17:48.291Z,98973.52
2017-12-11T17:20:15.442Z,98984.79
2017-12-11T17:22:41.877Z,98992.35
2017-12-11T17:25:08.608Z,98995.56
2017-12-11T17:27:35.053Z,98998.09
2017-12-11T17:30:01.488Z,99001.81
2017-12-11T17:32:28.636Z,98995.44
2017-12-11T17:34:55.070Z,99000.02
2017-12-11T17:37:21.505Z,98994.16
2017-12-11T17:39:48.041Z,99001.81
2017-12-11T17:42:14.480Z,98992.31
2017-12-11T17:44:41.014Z,98994.33
2017-12-11T17:47:07.376Z,98987.42
2017-12-11T17:49:33.727Z,98999.69
2017-12-11T17:52:00.114Z,99002.80
2017-12-11T17:54:26.599Z,99005.44
2017-12-11T17:56:52.981Z,98998.75
2017-12-11T17:59:19.415Z,99007.00
2017-12-11T18:01:46.240Z,99007.00
2017-12-11T18:04:12.695Z,99005.92
2017-12-11T18:06:39.130Z,99010.42
2017-12-11T18:09:05.462Z,99008.30
2017-12-11T18:11:32.207Z,99012.69
2017-12-11T18:13:58.598Z,99011.54
2017-12-11T18:16:25.481Z,98997.55
2017-12-11T18:18:52.735Z,99005.00
2017-12-11T18:21:19.170Z,99011.30
2017-12-11T18:23:45.606Z,99016.59
2017-12-11T18:26:12.033Z,99019.78
2017-12-11T18:28:38.449Z,99023.42
2017-12-11T18:31:04.891Z,99025.23
2017-12-11T18:33:31.240Z,99019.81
2017-12-11T18:35:57.605Z,99032.27
2017-12-11T18:38:24.446Z,99035.59
2017-12-11T18:40:50.851Z,99044.19
2017-12-11T18:43:17.287Z,99045.34
2017-12-11T18:45:43.658Z,99046.39
2017-12-11T18:48:10.077Z,99047.47
2017-12-11T18:50:36.384Z,99046.97
2017-12-11T18:53:02.822Z,99053.70
2017-12-11T18:55:29.254Z,99061.72
2017-12-11T18:57:55.617Z,99062.58
2017-12-11T19:00:22.170Z,99056.17
2017-12-11T19:02:48.605Z,99064.13
2017-12-11T19:05:15.039Z,99057.12
2017-12-11T19:07:41.372Z,99063.69
2017-12-11T19:10:07.828Z,99067.00
2017-12-11T19:12:34.286Z,99067.29
2017-12-11T19:15:00.623Z,99066.56
2017-12-11T19:17:27.011Z,99051.64
2017-12-11T19:19:54.159Z,99065.42
2017-12-11T19:22:20.574Z,99065.52
2017-12-11T19:24:47.016Z,99037.88
2017-12-11T19:27:13.463Z,99066.62
2017-12-11T19:29:39.898Z,99062.27
2017-12-11T19:32:06.331Z,99072.24
2017-12-11T19:34:32.791Z,99075.47
2017-12-11T19:37:00.006Z,99071.30
2017-12-11T19:39:26.454Z,99068.17
2017-12-11T19:41:52.889Z,99073.05
2017-12-11T19:44:19.323Z,99074.50
2017-12-11T19:46:45.656Z,99077.94
2017-12-11T19:49:12.090Z,99074.31
2017-12-11T19:51:38.546Z,99079.26
2017-12-11T19:54:05.677Z,99074.30
2017-12-11T19:56:32.130Z,99081.97
2017-12-11T19:58:58.544Z,99081.90
2017-12-11T20:01:24.979Z,99081.86
2017-12-11T20:03:51.393Z,99086.39
2017-12-11T20:06:17.849Z,99081.84
2017-12-11T20:08:44.257Z,99081.83
2017-12-11T20:11:11.437Z,99083.30
2017-12-11T20:13:37.800Z,99082.10
2017-12-11T20:16:04.133Z,99078.23
2017-12-11T20:18:30.464Z,99069.28
2017-12-11T20:20:56.808Z,99067.70
2017-12-11T20:23:23.201Z,99066.70
2017-12-11T20:25:49.619Z,99074.03
2017-12-11T20:28:16.784Z,99065.44
2017-12-11T20:30:43.218Z,99063.92
2017-12-11T20:33:09.653Z,99066.50
2017-12-11T20:35:36.087Z,99073.90
2017-12-11T20:38:02.532Z,99078.41
2017-12-11T20:40:28.956Z,99081.68
2017-12-11T20:42:55.391Z,99080.98
2017-12-11T20:45:22.543Z,99068.37
2017-12-11T20:47:48.977Z,99078.27
2017-12-11T20:50:15.416Z,99078.91
2017-12-11T20:52:41.868Z,99089.82
2017-12-11T20:55:08.382Z,99086.64
2017-12-11T20:57:34.820Z,99088.50
2017-12-11T21:00:01.150Z,99091.65
2017-12-11T21:02:28.425Z,99095.38
2017-12-11T21:04:54.838Z,99099.28
2017-12-11T21:07:21.277Z,99097.42
2017-12-11T21:09:47.707Z,99097.88
2017-12-11T21:12:14.141Z,99095.31
2017-12-11T21:14:40.576Z,99093.58
2017-12-11T21:17:06.908Z,99104.02
2017-12-11T21:19:34.192Z,99097.19
2017-12-11T21:22:00.561Z,99091.74
2017-12-11T21:24:26.928Z,99086.04
2017-12-11T21:26:53.363Z,99098.27
2017-12-11T21:29:19.733Z,99088.42
2017-12-11T21:31:46.129Z,99087.05
2017-12-11T21:34:12.564Z,99094.77
2017-12-11T21:36:39.727Z,99094.51
2017-12-11T21:39:06.151Z,99090.80
2017-12-11T21:41:32.584Z,99099.30
2017-12-11T21:43:59.121Z,99103.82
2017-12-11T21:46:25.556Z,99094.66
2017-12-11T21:48:51.916Z,99097.53
2017-12-11T21:51:18.323Z,99091.52
2017-12-11T21:53:45.474Z,99092.94
2017-12-11T21:56:11.813Z,99093.30
2017-12-11T21:58:38.245Z,99069.54
2017-12-11T22:01:04.677Z,99092.39
2017-12-11T22:03:31.110Z,99080.36
2017-12-11T22:05:57.544Z,99082.09
2017-12-11T22:08:23.978Z,99083.78
2017-12-11T22:10:51.236Z,99075.84
2017-12-11T22:13:17.670Z,99080.16
2017-12-11T22:15:44.000Z,99064.56
2017-12-11T22:18:10.409Z,99062.06
2017-12-11T22:20:36.767Z,99066.03
2017-12-11T22:23:03.204Z,99072.28
2017-12-11T22:25:29.533Z,99077.17
2017-12-11T22:27:56.751Z,99075.70
2017-12-11T22:30:23.193Z,99074.92
2017-12-11T22:32:49.589Z,99066.28
2017-12-11T22:35:15.989Z,99060.34
2017-12-11T22:37:42.463Z,99056.99
2017-12-11T22:40:08.935Z,99060.88
2017-12-11T22:42:35.379Z,99059.21
2017-12-11T22:45:02.424Z,99058.23
2017-12-11T22:47:28.877Z,99061.30
2017-12-11T22:49:55.314Z,99066.02
2017-12-11T22:52:21.678Z,99067.76
2017-12-11T22:54:48.079Z,99064.75
2017-12-11T22:57:14.407Z,99054.09
2017-12-11T22:59:40.846Z,99052.06
2017-12-11T23:02:07.999Z,99048.23
2017-12-11T23:04:34.431Z,99051.95
2017-12-11T23:07:00.800Z,99045.34
2017-12-11T23:09:27.200Z,99033.25
2017-12-11T23:11:53.530Z,99034.43
2017-12-11T23:14:19.966Z,99038.48
2017-12-11T23:16:46.401Z,99036.19
2017-12-11T23:19:13.534Z,99041.28
2017-12-11T23:21:39.985Z,99055.40
2017-12-11T23:24:06.420Z,99045.11
2017-12-11T23:26:32.855Z,99041.94
2017-12-11T23:28:59.186Z,99038.27
2017-12-11T23:31:25.623Z,99035.13
2017-12-11T23:33:52.056Z,99031.73
2017-12-11T23:36:19.209Z,99026.97
2017-12-11T23:38:45.643Z,99025.52
2017-12-11T23:41:12.077Z,99022.80
2017-12-11T23:43:38.408Z,99033.32
2017-12-11T23:46:04.843Z,99030.17
2017-12-11T23:48:31.277Z,99031.44
2017-12-11T23:50:57.713Z,99030.11
2017-12-11T23:53:24.897Z,99029.33
2017-12-11T23:55:51.298Z,99041.32
2017-12-11T23:58:17.629Z,99035.50
